sensor_id;sensor_type;location;lat;lon;timestamp;temperature;humidity
39919;DHT22;25589;51.552;13.424;2023-03-01T00:01:08;1.10;99.90
39919;DHT22;25589;51.552;13.424;2023-03-01T00:03:34;1.80;99.90
39919;DHT22;25589;51.552;13.424;2023-03-01T00:06:01;2.20;99.90
39919;DHT22;25589;51.552;13.424;2023-03-01T00:08:27;2.00;99.90
39919;DHT22;25589;51.552;13.424;2023-03-01T00:13:41;1.70;99.90
39919;DHT22;25589;51.552;13.424;2023-03-01T00:16:12;1.90;99.90
39919;DHT22;25589;51.552;13.424;2023-03-01T00:18:38;1.00;99.90
39919;DHT22;25589;51.552;13.424;2023-03-01T00:21:04;1.10;99.90
39919;DHT22;25589;51.552;13.424;2023-03-01T00:23:30;1.10;99.90
39919;DHT22;25589;51.552;13.424;2023-03-01T00:25:56;1.10;99.90
39919;DHT22;25589;51.552;13.424;2023-03-01T00:28:21;0.70;99.90
39919;DHT22;25589;51.552;13.424;2023-03-01T00:30:47;1.60;99.90
39919;DHT22;25589;51.552;13.424;2023-03-01T00:33:13;0.40;99.90
39919;DHT22;25589;51.552;13.424;2023-03-01T00:35:39;1.00;99.90
39919;DHT22;25589;51.552;13.424;2023-03-01T00:38:05;1.90;99.90
39919;DHT22;25589;51.552;13.424;2023-03-01T00:40:33;0.50;99.90
39919;DHT22;25589;51.552;13.424;2023-03-01T00:43:00;0.90;99.90
39919;DHT22;25589;51.552;13.424;2023-03-01T00:45:26;0.90;99.90
39919;DHT22;25589;51.552;13.424;2023-03-01T00:47:52;1.40;99.90
39919;DHT22;25589;51.552;13.424;2023-03-01T00:50:18;0.90;99.90
39919;DHT22;25589;51.552;13.424;2023-03-01T00:52:44;0.90;99.90
39919;DHT22;25589;51.552;13.424;2023-03-01T00:55:10;1.40;99.90
39919;DHT22;25589;51.552;13.424;2023-03-01T00:57:36;0.60;99.90
39919;DHT22;25589;51.552;13.424;2023-03-01T01:00:04;0.70;99.90
39919;DHT22;25589;51.552;13.424;2023-03-01T01:02:31;1.10;99.90
39919;DHT22;25589;51.552;13.424;2023-03-01T01:04:57;0.50;99.90
39919;DHT22;25589;51.552;13.424;2023-03-01T01:07:22;1.80;99.90
39919;DHT22;25589;51.552;13.424;2023-03-01T01:09:48;1.40;99.90
39919;DHT22;25589;51.552;13.424;2023-03-01T01:12:14;0.70;99.90
39919;DHT22;25589;51.552;13.424;2023-03-01T01:14:40;0.70;99.90
39919;DHT22;25589;51.552;13.424;2023-03-01T01:17:05;0.40;99.90
39919;DHT22;25589;51.552;13.424;2023-03-01T01:19:31;0.70;99.90
39919;DHT22;25589;51.552;13.424;2023-03-01T01:21:57;0.70;99.90
39919;DHT22;25589;51.552;13.424;2023-03-01T01:24:22;0.60;99.90
39919;DHT22;25589;51.552;13.424;2023-03-01T01:26:48;1.30;99.90
39919;DHT22;25589;51.552;13.424;2023-03-01T01:29:14;0.60;99.90
39919;DHT22;25589;51.552;13.424;2023-03-01T01:31:41;1.00;99.90
39919;DHT22;25589;51.552;13.424;2023-03-01T01:34:12;0.10;99.90
39919;DHT22;25589;51.552;13.424;2023-03-01T01:36:38;0.90;99.90
39919;DHT22;25589;51.552;13.424;2023-03-01T01:39:04;0.40;99.90
39919;DHT22;25589;51.552;13.424;2023-03-01T01:41:30;-0.90;99.90
39919;DHT22;25589;51.552;13.424;2023-03-01T01:44:16;0.40;99.90
39919;DHT22;25589;51.552;13.424;2023-03-01T01:47:04;0.40;99.90
39919;DHT22;25589;51.552;13.424;2023-03-01T01:49:50;0.90;99.90
39919;DHT22;25589;51.552;13.424;2023-03-01T01:52:24;0.40;99.90
39919;DHT22;25589;51.552;13.424;2023-03-01T01:55:07;1.10;99.90
39919;DHT22;25589;51.552;13.424;2023-03-01T01:57:48;0.30;99.90
39919;DHT22;25589;51.552;13.424;2023-03-01T02:00:23;1.00;99.90
39919;DHT22;25589;51.552;13.424;2023-03-01T02:02:53;1.40;99.90
39919;DHT22;25589;51.552;13.424;2023-03-01T02:08:11;0.70;99.90
39919;DHT22;25589;51.552;13.424;2023-03-01T02:10:37;0.20;99.90
39919;DHT22;25589;51.552;13.424;2023-03-01T02:15:37;-0.30;99.90
39919;DHT22;25589;51.552;13.424;2023-03-01T02:18:04;-0.30;99.90
39919;DHT22;25589;51.552;13.424;2023-03-01T02:23:12;0.20;99.90
39919;DHT22;25589;51.552;13.424;2023-03-01T02:25:50;1.10;99.90
39919;DHT22;25589;51.552;13.424;2023-03-01T02:30:48;0.70;99.90
39919;DHT22;25589;51.552;13.424;2023-03-01T02:33:34;-1.10;99.90
39919;DHT22;25589;51.552;13.424;2023-03-01T02:36:03;1.10;99.90
39919;DHT22;25589;51.552;13.424;2023-03-01T02:38:31;-1.00;99.90
39919;DHT22;25589;51.552;13.424;2023-03-01T02:40:57;0.40;99.90
39919;DHT22;25589;51.552;13.424;2023-03-01T02:43:29;0.80;99.90
39919;DHT22;25589;51.552;13.424;2023-03-01T02:46:02;0.00;99.90
39919;DHT22;25589;51.552;13.424;2023-03-01T02:51:13;-0.10;99.90
39919;DHT22;25589;51.552;13.424;2023-03-01T02:54:24;-0.60;99.90
39919;DHT22;25589;51.552;13.424;2023-03-01T02:56:52;-0.80;99.90
39919;DHT22;25589;51.552;13.424;2023-03-01T02:59:22;0.10;99.90
39919;DHT22;25589;51.552;13.424;2023-03-01T03:01:49;-0.10;99.90
39919;DHT22;25589;51.552;13.424;2023-03-01T03:04:18;-1.40;99.90
39919;DHT22;25589;51.552;13.424;2023-03-01T03:06:48;0.00;99.90
39919;DHT22;25589;51.552;13.424;2023-03-01T03:09:14;0.40;99.90
39919;DHT22;25589;51.552;13.424;2023-03-01T03:11:40;-1.00;99.90
39919;DHT22;25589;51.552;13.424;2023-03-01T03:14:08;-0.10;99.90
39919;DHT22;25589;51.552;13.424;2023-03-01T03:16:50;-0.10;99.90
39919;DHT22;25589;51.552;13.424;2023-03-01T03:19:17;-0.40;99.90
39919;DHT22;25589;51.552;13.424;2023-03-01T03:21:43;0.30;99.90
39919;DHT22;25589;51.552;13.424;2023-03-01T03:24:09;-0.20;99.90
39919;DHT22;25589;51.552;13.424;2023-03-01T03:26:34;0.50;99.90
39919;DHT22;25589;51.552;13.424;2023-03-01T03:29:00;-0.30;99.90
39919;DHT22;25589;51.552;13.424;2023-03-01T03:31:25;-0.90;99.90
39919;DHT22;25589;51.552;13.424;2023-03-01T03:33:51;-0.30;99.90
39919;DHT22;25589;51.552;13.424;2023-03-01T03:36:22;-0.30;99.90
39919;DHT22;25589;51.552;13.424;2023-03-01T03:38:48;-0.40;99.90
39919;DHT22;25589;51.552;13.424;2023-03-01T03:41:15;-0.50;99.90
39919;DHT22;25589;51.552;13.424;2023-03-01T03:43:41;-0.40;99.90
39919;DHT22;25589;51.552;13.424;2023-03-01T03:46:09;-1.00;99.90
39919;DHT22;25589;51.552;13.424;2023-03-01T03:48:37;-0.20;99.90
39919;DHT22;25589;51.552;13.424;2023-03-01T03:51:02;-0.60;99.90
39919;DHT22;25589;51.552;13.424;2023-03-01T03:53:31;-1.40;99.90
39919;DHT22;25589;51.552;13.424;2023-03-01T03:55:56;0.10;99.90
39919;DHT22;25589;51.552;13.424;2023-03-01T03:58:23;-0.50;99.90
39919;DHT22;25589;51.552;13.424;2023-03-01T04:00:52;-0.50;99.90
39919;DHT22;25589;51.552;13.424;2023-03-01T04:03:19;-0.50;99.90
39919;DHT22;25589;51.552;13.424;2023-03-01T04:05:46;-0.50;99.90
39919;DHT22;25589;51.552;13.424;2023-03-01T04:08:12;0.60;99.90
39919;DHT22;25589;51.552;13.424;2023-03-01T04:10:43;0.20;99.90
39919;DHT22;25589;51.552;13.424;2023-03-01T04:13:12;-1.30;99.90
39919;DHT22;25589;51.552;13.424;2023-03-01T04:15:38;-0.70;99.90
39919;DHT22;25589;51.552;13.424;2023-03-01T04:18:05;-1.00;99.90
39919;DHT22;25589;51.552;13.424;2023-03-01T04:20:34;-0.60;99.90
39919;DHT22;25589;51.552;13.424;2023-03-01T04:23:09;-1.20;99.90
39919;DHT22;25589;51.552;13.424;2023-03-01T04:25:45;0.10;99.90
39919;DHT22;25589;51.552;13.424;2023-03-01T04:28:11;-0.70;99.90
39919;DHT22;25589;51.552;13.424;2023-03-01T04:30:38;-0.70;99.90
39919;DHT22;25589;51.552;13.424;2023-03-01T04:33:08;-0.60;99.90
39919;DHT22;25589;51.552;13.424;2023-03-01T04:35:35;-0.60;99.90
39919;DHT22;25589;51.552;13.424;2023-03-01T04:38:02;-0.80;99.90
39919;DHT22;25589;51.552;13.424;2023-03-01T04:40:27;0.00;99.90
39919;DHT22;25589;51.552;13.424;2023-03-01T04:42:53;-0.60;99.90
39919;DHT22;25589;51.552;13.424;2023-03-01T04:45:19;-0.40;99.90
39919;DHT22;25589;51.552;13.424;2023-03-01T04:47:46;-0.60;99.90
39919;DHT22;25589;51.552;13.424;2023-03-01T04:50:16;0.60;99.90
39919;DHT22;25589;51.552;13.424;2023-03-01T04:52:43;-0.60;99.90
39919;DHT22;25589;51.552;13.424;2023-03-01T04:55:10;-0.70;99.90
39919;DHT22;25589;51.552;13.424;2023-03-01T04:57:35;-0.60;99.90
39919;DHT22;25589;51.552;13.424;2023-03-01T05:00:01;-1.60;99.90
39919;DHT22;25589;51.552;13.424;2023-03-01T05:07:40;-0.70;99.90
39919;DHT22;25589;51.552;13.424;2023-03-01T05:10:06;-1.30;99.90
39919;DHT22;25589;51.552;13.424;2023-03-01T05:12:32;-0.50;99.90
39919;DHT22;25589;51.552;13.424;2023-03-01T05:14:57;0.20;99.90
39919;DHT22;25589;51.552;13.424;2023-03-01T05:17:23;-1.60;99.90
39919;DHT22;25589;51.552;13.424;2023-03-01T05:19:49;-0.80;99.90
39919;DHT22;25589;51.552;13.424;2023-03-01T05:22:15;-0.40;99.90
39919;DHT22;25589;51.552;13.424;2023-03-01T05:24:41;-0.70;99.90
39919;DHT22;25589;51.552;13.424;2023-03-01T05:27:07;-0.70;99.90
39919;DHT22;25589;51.552;13.424;2023-03-01T05:29:33;-1.50;99.90
39919;DHT22;25589;51.552;13.424;2023-03-01T05:32:01;-0.20;99.90
39919;DHT22;25589;51.552;13.424;2023-03-01T05:34:32;-0.70;99.90
39919;DHT22;25589;51.552;13.424;2023-03-01T05:36:58;-0.50;99.90
39919;DHT22;25589;51.552;13.424;2023-03-01T05:39:26;0.00;99.90
39919;DHT22;25589;51.552;13.424;2023-03-01T05:41:53;-0.80;99.90
39919;DHT22;25589;51.552;13.424;2023-03-01T05:44:20;-0.90;99.90
39919;DHT22;25589;51.552;13.424;2023-03-01T05:46:46;0.50;99.90
39919;DHT22;25589;51.552;13.424;2023-03-01T05:51:41;-0.70;99.90
39919;DHT22;25589;51.552;13.424;2023-03-01T05:54:11;0.10;99.90
39919;DHT22;25589;51.552;13.424;2023-03-01T05:56:36;-0.70;99.90
39919;DHT22;25589;51.552;13.424;2023-03-01T05:59:03;-0.70;99.90
39919;DHT22;25589;51.552;13.424;2023-03-01T06:01:33;-1.20;99.90
39919;DHT22;25589;51.552;13.424;2023-03-01T06:03:59;-0.80;99.90
39919;DHT22;25589;51.552;13.424;2023-03-01T06:06:25;0.10;99.90
39919;DHT22;25589;51.552;13.424;2023-03-01T06:11:17;-0.60;99.90
39919;DHT22;25589;51.552;13.424;2023-03-01T06:13:44;-0.80;99.90
39919;DHT22;25589;51.552;13.424;2023-03-01T06:16:10;-0.50;99.90
39919;DHT22;25589;51.552;13.424;2023-03-01T06:18:36;-0.60;99.90
39919;DHT22;25589;51.552;13.424;2023-03-01T06:21:02;-0.40;99.90
39919;DHT22;25589;51.552;13.424;2023-03-01T06:23:28;-0.90;99.90
39919;DHT22;25589;51.552;13.424;2023-03-01T06:25:54;-0.60;99.90
39919;DHT22;25589;51.552;13.424;2023-03-01T06:28:20;-0.40;99.90
39919;DHT22;25589;51.552;13.424;2023-03-01T06:30:45;-0.50;99.90
39919;DHT22;25589;51.552;13.424;2023-03-01T06:33:11;0.40;99.90
39919;DHT22;25589;51.552;13.424;2023-03-01T06:35:37;-0.30;99.90
39919;DHT22;25589;51.552;13.424;2023-03-01T06:40:30;-0.50;99.90
39919;DHT22;25589;51.552;13.424;2023-03-01T06:42:56;-0.50;99.90
39919;DHT22;25589;51.552;13.424;2023-03-01T06:45:22;0.20;99.90
39919;DHT22;25589;51.552;13.424;2023-03-01T06:47:48;-0.10;99.90
39919;DHT22;25589;51.552;13.424;2023-03-01T06:50:14;-0.20;99.90
39919;DHT22;25589;51.552;13.424;2023-03-01T06:52:40;0.90;99.90
39919;DHT22;25589;51.552;13.424;2023-03-01T06:57:32;-0.20;99.90
39919;DHT22;25589;51.552;13.424;2023-03-01T06:59:58;-0.10;99.90
39919;DHT22;25589;51.552;13.424;2023-03-01T07:02:24;-0.30;99.90
39919;DHT22;25589;51.552;13.424;2023-03-01T07:04:50;-0.10;99.90
39919;DHT22;25589;51.552;13.424;2023-03-01T07:07:17;-0.30;99.90
39919;DHT22;25589;51.552;13.424;2023-03-01T07:09:46;1.20;99.90
39919;DHT22;25589;51.552;13.424;2023-03-01T07:12:13;0.80;99.90
39919;DHT22;25589;51.552;13.424;2023-03-01T07:14:39;0.50;99.90
39919;DHT22;25589;51.552;13.424;2023-03-01T07:17:04;0.60;99.90
39919;DHT22;25589;51.552;13.424;2023-03-01T07:19:30;0.60;99.90
39919;DHT22;25589;51.552;13.424;2023-03-01T07:21:55;0.30;99.90
39919;DHT22;25589;51.552;13.424;2023-03-01T07:26:51;1.20;99.90
39919;DHT22;25589;51.552;13.424;2023-03-01T07:29:18;-0.30;99.90
39919;DHT22;25589;51.552;13.424;2023-03-01T07:31:44;0.80;99.90
39919;DHT22;25589;51.552;13.424;2023-03-01T07:34:10;0.50;99.90
39919;DHT22;25589;51.552;13.424;2023-03-01T07:36:36;0.60;99.90
39919;DHT22;25589;51.552;13.424;2023-03-01T07:39:03;0.60;99.90
39919;DHT22;25589;51.552;13.424;2023-03-01T07:41:29;0.70;99.90
39919;DHT22;25589;51.552;13.424;2023-03-01T07:43:55;0.70;99.90
39919;DHT22;25589;51.552;13.424;2023-03-01T07:46:20;0.10;99.90
39919;DHT22;25589;51.552;13.424;2023-03-01T07:48:46;0.90;99.90
39919;DHT22;25589;51.552;13.424;2023-03-01T07:51:12;0.90;99.90
39919;DHT22;25589;51.552;13.424;2023-03-01T07:56:05;1.80;99.90
39919;DHT22;25589;51.552;13.424;2023-03-01T07:58:33;1.20;99.90
39919;DHT22;25589;51.552;13.424;2023-03-01T08:01:02;1.30;99.90
39919;DHT22;25589;51.552;13.424;2023-03-01T08:03:28;1.40;99.90
39919;DHT22;25589;51.552;13.424;2023-03-01T08:05:53;1.40;99.90
39919;DHT22;25589;51.552;13.424;2023-03-01T08:08:19;1.40;99.90
39919;DHT22;25589;51.552;13.424;2023-03-01T08:10:44;0.90;99.90
39919;DHT22;25589;51.552;13.424;2023-03-01T08:13:10;1.70;99.90
39919;DHT22;25589;51.552;13.424;2023-03-01T08:15:36;3.00;99.90
39919;DHT22;25589;51.552;13.424;2023-03-01T08:18:01;2.30;99.90
39919;DHT22;25589;51.552;13.424;2023-03-01T08:20:27;2.00;99.90
39919;DHT22;25589;51.552;13.424;2023-03-01T08:22:52;2.20;99.90
39919;DHT22;25589;51.552;13.424;2023-03-01T08:25:18;1.70;99.90
39919;DHT22;25589;51.552;13.424;2023-03-01T08:27:43;2.30;99.90
39919;DHT22;25589;51.552;13.424;2023-03-01T08:30:09;3.80;99.90
39919;DHT22;25589;51.552;13.424;2023-03-01T08:32:37;3.60;99.90
39919;DHT22;25589;51.552;13.424;2023-03-01T08:35:03;2.70;99.90
39919;DHT22;25589;51.552;13.424;2023-03-01T08:37:29;2.70;99.90
39919;DHT22;25589;51.552;13.424;2023-03-01T08:39:56;2.90;99.90
39919;DHT22;25589;51.552;13.424;2023-03-01T08:42:21;3.60;99.90
39919;DHT22;25589;51.552;13.424;2023-03-01T08:44:47;3.70;99.90
39919;DHT22;25589;51.552;13.424;2023-03-01T08:47:13;3.10;99.90
39919;DHT22;25589;51.552;13.424;2023-03-01T08:49:39;3.30;99.90
39919;DHT22;25589;51.552;13.424;2023-03-01T08:52:04;4.40;99.90
39919;DHT22;25589;51.552;13.424;2023-03-01T08:54:30;2.50;99.90
39919;DHT22;25589;51.552;13.424;2023-03-01T08:56:55;3.60;99.90
39919;DHT22;25589;51.552;13.424;2023-03-01T08:59:25;3.60;99.90
39919;DHT22;25589;51.552;13.424;2023-03-01T09:01:50;3.60;99.90
39919;DHT22;25589;51.552;13.424;2023-03-01T09:04:16;3.90;99.90
39919;DHT22;25589;51.552;13.424;2023-03-01T09:06:42;3.90;99.90
39919;DHT22;25589;51.552;13.424;2023-03-01T09:09:13;4.50;99.90
39919;DHT22;25589;51.552;13.424;2023-03-01T09:11:40;4.00;99.90
39919;DHT22;25589;51.552;13.424;2023-03-01T09:14:06;4.20;99.90
39919;DHT22;25589;51.552;13.424;2023-03-01T09:16:32;5.00;99.90
39919;DHT22;25589;51.552;13.424;2023-03-01T09:19:01;4.50;99.90
39919;DHT22;25589;51.552;13.424;2023-03-01T09:21:27;4.40;99.90
39919;DHT22;25589;51.552;13.424;2023-03-01T09:23:56;5.40;99.90
39919;DHT22;25589;51.552;13.424;2023-03-01T09:26:22;5.20;99.90
39919;DHT22;25589;51.552;13.424;2023-03-01T09:28:50;4.90;99.90
39919;DHT22;25589;51.552;13.424;2023-03-01T09:31:18;5.00;99.90
39919;DHT22;25589;51.552;13.424;2023-03-01T09:33:46;4.90;99.90
39919;DHT22;25589;51.552;13.424;2023-03-01T09:36:17;5.30;99.90
39919;DHT22;25589;51.552;13.424;2023-03-01T09:38:43;6.00;99.90
39919;DHT22;25589;51.552;13.424;2023-03-01T09:44:27;5.90;99.90
39919;DHT22;25589;51.552;13.424;2023-03-01T09:49:28;5.40;99.90
39919;DHT22;25589;51.552;13.424;2023-03-01T09:54:24;5.10;99.90
39919;DHT22;25589;51.552;13.424;2023-03-01T09:57:01;5.60;99.90
39919;DHT22;25589;51.552;13.424;2023-03-01T09:59:54;5.90;99.90
39919;DHT22;25589;51.552;13.424;2023-03-01T10:02:38;6.00;99.90
39919;DHT22;25589;51.552;13.424;2023-03-01T10:07:50;5.90;99.90
39919;DHT22;25589;51.552;13.424;2023-03-01T10:10:34;6.20;99.90
39919;DHT22;25589;51.552;13.424;2023-03-01T10:13:10;5.30;99.90
39919;DHT22;25589;51.552;13.424;2023-03-01T10:15:44;7.10;99.90
39919;DHT22;25589;51.552;13.424;2023-03-01T10:23:12;6.40;99.90
39919;DHT22;25589;51.552;13.424;2023-03-01T10:28:17;7.10;99.90
39919;DHT22;25589;51.552;13.424;2023-03-01T10:30:43;7.70;99.90
39919;DHT22;25589;51.552;13.424;2023-03-01T10:33:20;7.90;99.90
39919;DHT22;25589;51.552;13.424;2023-03-01T10:35:47;7.30;99.90
39919;DHT22;25589;51.552;13.424;2023-03-01T10:38:15;7.50;99.90
39919;DHT22;25589;51.552;13.424;2023-03-01T10:40:51;7.70;99.90
39919;DHT22;25589;51.552;13.424;2023-03-01T10:43:18;8.10;99.50
39919;DHT22;25589;51.552;13.424;2023-03-01T10:45:44;7.60;98.80
39919;DHT22;25589;51.552;13.424;2023-03-01T10:48:18;7.80;97.90
39919;DHT22;25589;51.552;13.424;2023-03-01T10:51:05;8.00;96.60
39919;DHT22;25589;51.552;13.424;2023-03-01T10:53:40;8.20;96.20
39919;DHT22;25589;51.552;13.424;2023-03-01T10:56:14;7.40;94.30
39919;DHT22;25589;51.552;13.424;2023-03-01T10:59:02;9.00;94.70
39919;DHT22;25589;51.552;13.424;2023-03-01T11:01:33;8.60;93.40
39919;DHT22;25589;51.552;13.424;2023-03-01T11:06:35;9.70;91.80
39919;DHT22;25589;51.552;13.424;2023-03-01T11:09:20;8.80;90.70
39919;DHT22;25589;51.552;13.424;2023-03-01T11:11:52;8.90;90.60
39919;DHT22;25589;51.552;13.424;2023-03-01T11:14:21;8.70;90.40
39919;DHT22;25589;51.552;13.424;2023-03-01T11:16:57;8.40;89.50
39919;DHT22;25589;51.552;13.424;2023-03-01T11:19:24;8.70;87.40
39919;DHT22;25589;51.552;13.424;2023-03-01T11:21:58;10.00;87.70
39919;DHT22;25589;51.552;13.424;2023-03-01T11:24:40;9.80;87.40
39919;DHT22;25589;51.552;13.424;2023-03-01T11:27:15;9.50;84.10
39919;DHT22;25589;51.552;13.424;2023-03-01T11:29:45;9.10;83.70
39919;DHT22;25589;51.552;13.424;2023-03-01T11:32:13;9.50;84.50
39919;DHT22;25589;51.552;13.424;2023-03-01T11:34:50;9.60;77.20
39919;DHT22;25589;51.552;13.424;2023-03-01T11:37:41;9.70;74.20
39919;DHT22;25589;51.552;13.424;2023-03-01T11:40:45;10.00;70.00
39919;DHT22;25589;51.552;13.424;2023-03-01T11:43:22;10.00;66.20
39919;DHT22;25589;51.552;13.424;2023-03-01T11:48:37;10.30;65.20
39919;DHT22;25589;51.552;13.424;2023-03-01T11:53:41;11.20;64.90
39919;DHT22;25589;51.552;13.424;2023-03-01T11:56:38;10.30;62.10
39919;DHT22;25589;51.552;13.424;2023-03-01T11:59:20;10.60;62.60
39919;DHT22;25589;51.552;13.424;2023-03-01T12:10:57;11.00;58.80
39919;DHT22;25589;51.552;13.424;2023-03-01T12:18:50;11.40;57.90
39919;DHT22;25589;51.552;13.424;2023-03-01T12:22:28;11.50;57.30
39919;DHT22;25589;51.552;13.424;2023-03-01T12:33:02;11.90;55.90
39919;DHT22;25589;51.552;13.424;2023-03-01T12:36:02;11.80;55.50
39919;DHT22;25589;51.552;13.424;2023-03-01T12:38:41;11.80;55.20
39919;DHT22;25589;51.552;13.424;2023-03-01T12:49:23;12.20;53.50
39919;DHT22;25589;51.552;13.424;2023-03-01T12:51:51;12.50;53.90
39919;DHT22;25589;51.552;13.424;2023-03-01T12:54:31;12.20;53.20
39919;DHT22;25589;51.552;13.424;2023-03-01T12:57:08;12.10;51.70
39919;DHT22;25589;51.552;13.424;2023-03-01T13:02:33;12.30;50.60
39919;DHT22;25589;51.552;13.424;2023-03-01T13:05:14;12.40;50.10
39919;DHT22;25589;51.552;13.424;2023-03-01T13:08:08;12.60;49.60
39919;DHT22;25589;51.552;13.424;2023-03-01T13:10:54;12.50;47.90
39919;DHT22;25589;51.552;13.424;2023-03-01T13:13:26;12.50;48.00
39919;DHT22;25589;51.552;13.424;2023-03-01T13:15:52;12.50;48.50
39919;DHT22;25589;51.552;13.424;2023-03-01T13:20:52;12.60;48.20
39919;DHT22;25589;51.552;13.424;2023-03-01T13:31:00;12.90;49.30
39919;DHT22;25589;51.552;13.424;2023-03-01T13:35:53;13.30;51.10
39919;DHT22;25589;51.552;13.424;2023-03-01T13:38:55;13.00;51.50
39919;DHT22;25589;51.552;13.424;2023-03-01T13:49:41;13.10;51.50
39919;DHT22;25589;51.552;13.424;2023-03-01T13:54:52;13.10;52.40
39919;DHT22;25589;51.552;13.424;2023-03-01T13:57:24;13.10;52.30
39919;DHT22;25589;51.552;13.424;2023-03-01T13:59:51;13.20;52.70
39919;DHT22;25589;51.552;13.424;2023-03-01T14:02:16;13.20;52.00
39919;DHT22;25589;51.552;13.424;2023-03-01T14:04:42;13.00;52.20
39919;DHT22;25589;51.552;13.424;2023-03-01T14:07:18;13.00;51.10
39919;DHT22;25589;51.552;13.424;2023-03-01T14:09:47;13.00;51.10
39919;DHT22;25589;51.552;13.424;2023-03-01T14:12:36;12.90;51.80
39919;DHT22;25589;51.552;13.424;2023-03-01T14:15:10;13.10;51.80
39919;DHT22;25589;51.552;13.424;2023-03-01T14:18:04;13.40;51.50
39919;DHT22;25589;51.552;13.424;2023-03-01T14:20:42;13.50;50.80
39919;DHT22;25589;51.552;13.424;2023-03-01T14:23:13;13.60;51.30
39919;DHT22;25589;51.552;13.424;2023-03-01T14:26:07;13.70;50.50
39919;DHT22;25589;51.552;13.424;2023-03-01T14:28:36;13.90;50.50
39919;DHT22;25589;51.552;13.424;2023-03-01T14:31:37;13.80;50.20
39919;DHT22;25589;51.552;13.424;2023-03-01T14:34:04;14.00;50.00
39919;DHT22;25589;51.552;13.424;2023-03-01T14:36:33;14.10;49.30
39919;DHT22;25589;51.552;13.424;2023-03-01T14:38:59;14.20;49.00
39919;DHT22;25589;51.552;13.424;2023-03-01T14:41:34;14.40;48.60
39919;DHT22;25589;51.552;13.424;2023-03-01T14:44:02;14.80;48.10
39919;DHT22;25589;51.552;13.424;2023-03-01T14:46:32;14.90;47.40
39919;DHT22;25589;51.552;13.424;2023-03-01T14:49:06;14.90;46.90
39919;DHT22;25589;51.552;13.424;2023-03-01T14:51:39;15.20;46.20
39919;DHT22;25589;51.552;13.424;2023-03-01T14:54:24;15.50;45.60
39919;DHT22;25589;51.552;13.424;2023-03-01T14:56:51;15.80;45.50
39919;DHT22;25589;51.552;13.424;2023-03-01T14:59:24;16.20;44.60
39919;DHT22;25589;51.552;13.424;2023-03-01T15:01:51;16.10;44.90
39919;DHT22;25589;51.552;13.424;2023-03-01T15:04:18;16.20;44.10
39919;DHT22;25589;51.552;13.424;2023-03-01T15:06:45;16.70;43.80
39919;DHT22;25589;51.552;13.424;2023-03-01T15:09:14;17.00;43.00
39919;DHT22;25589;51.552;13.424;2023-03-01T15:11:41;17.30;43.20
39919;DHT22;25589;51.552;13.424;2023-03-01T15:14:47;17.70;41.60
39919;DHT22;25589;51.552;13.424;2023-03-01T15:19:58;18.20;41.40
39919;DHT22;25589;51.552;13.424;2023-03-01T15:22:26;18.00;40.00
39919;DHT22;25589;51.552;13.424;2023-03-01T15:24:52;18.10;40.20
39919;DHT22;25589;51.552;13.424;2023-03-01T15:27:21;18.00;40.00
39919;DHT22;25589;51.552;13.424;2023-03-01T15:29:50;17.90;40.20
39919;DHT22;25589;51.552;13.424;2023-03-01T15:34:48;17.80;40.30
39919;DHT22;25589;51.552;13.424;2023-03-01T15:37:46;17.80;40.30
39919;DHT22;25589;51.552;13.424;2023-03-01T15:42:44;17.80;40.20
39919;DHT22;25589;51.552;13.424;2023-03-01T15:47:48;18.00;40.40
39919;DHT22;25589;51.552;13.424;2023-03-01T15:50:37;18.10;40.60
39919;DHT22;25589;51.552;13.424;2023-03-01T15:53:08;18.00;40.60
39919;DHT22;25589;51.552;13.424;2023-03-01T15:55:36;17.90;40.80
39919;DHT22;25589;51.552;13.424;2023-03-01T15:58:12;17.90;41.20
39919;DHT22;25589;51.552;13.424;2023-03-01T16:00:37;17.80;41.10
39919;DHT22;25589;51.552;13.424;2023-03-01T16:03:04;17.60;41.00
39919;DHT22;25589;51.552;13.424;2023-03-01T16:05:32;17.50;41.10
39919;DHT22;25589;51.552;13.424;2023-03-01T16:07:58;17.50;41.10
39919;DHT22;25589;51.552;13.424;2023-03-01T16:10:24;17.50;41.10
39919;DHT22;25589;51.552;13.424;2023-03-01T16:12:51;17.30;41.40
39919;DHT22;25589;51.552;13.424;2023-03-01T16:15:25;17.10;42.00
39919;DHT22;25589;51.552;13.424;2023-03-01T16:17:51;16.80;43.10
39919;DHT22;25589;51.552;13.424;2023-03-01T16:20:23;16.60;43.90
39919;DHT22;25589;51.552;13.424;2023-03-01T16:22:50;16.40;44.70
39919;DHT22;25589;51.552;13.424;2023-03-01T16:25:18;16.10;45.20
39919;DHT22;25589;51.552;13.424;2023-03-01T16:27:45;15.90;45.50
39919;DHT22;25589;51.552;13.424;2023-03-01T16:30:12;15.50;46.20
39919;DHT22;25589;51.552;13.424;2023-03-01T16:32:39;15.30;46.20
39919;DHT22;25589;51.552;13.424;2023-03-01T16:35:06;15.00;47.10
39919;DHT22;25589;51.552;13.424;2023-03-01T16:37:33;14.20;47.80
39919;DHT22;25589;51.552;13.424;2023-03-01T16:39:59;14.00;48.50
39919;DHT22;25589;51.552;13.424;2023-03-01T16:42:24;13.00;50.00
39919;DHT22;25589;51.552;13.424;2023-03-01T16:44:54;12.50;50.80
39919;DHT22;25589;51.552;13.424;2023-03-01T16:47:20;11.90;52.00
39919;DHT22;25589;51.552;13.424;2023-03-01T16:49:46;11.80;52.80
39919;DHT22;25589;51.552;13.424;2023-03-01T16:52:11;11.10;53.60
39919;DHT22;25589;51.552;13.424;2023-03-01T16:54:37;10.80;54.30
39919;DHT22;25589;51.552;13.424;2023-03-01T16:57:03;10.50;55.10
39919;DHT22;25589;51.552;13.424;2023-03-01T16:59:28;10.20;55.90
39919;DHT22;25589;51.552;13.424;2023-03-01T17:01:54;9.90;56.50
39919;DHT22;25589;51.552;13.424;2023-03-01T17:04:19;9.80;57.00
39919;DHT22;25589;51.552;13.424;2023-03-01T17:06:45;9.50;57.70
39919;DHT22;25589;51.552;13.424;2023-03-01T17:09:12;9.40;57.90
39919;DHT22;25589;51.552;13.424;2023-03-01T17:11:37;9.20;58.20
39919;DHT22;25589;51.552;13.424;2023-03-01T17:14:03;9.10;58.50
39919;DHT22;25589;51.552;13.424;2023-03-01T17:16:28;8.90;59.00
39919;DHT22;25589;51.552;13.424;2023-03-01T17:18:54;9.20;59.90
39919;DHT22;25589;51.552;13.424;2023-03-01T17:21:19;8.50;60.00
39919;DHT22;25589;51.552;13.424;2023-03-01T17:23:46;8.50;60.70
39919;DHT22;25589;51.552;13.424;2023-03-01T17:26:12;8.30;60.90
39919;DHT22;25589;51.552;13.424;2023-03-01T17:28:38;7.90;61.10
39919;DHT22;25589;51.552;13.424;2023-03-01T17:33:31;7.90;62.20
39919;DHT22;25589;51.552;13.424;2023-03-01T17:38:24;7.70;63.30
39919;DHT22;25589;51.552;13.424;2023-03-01T17:40:50;7.60;63.80
39919;DHT22;25589;51.552;13.424;2023-03-01T17:43:16;7.50;64.10
39919;DHT22;25589;51.552;13.424;2023-03-01T17:45:43;7.40;64.60
39919;DHT22;25589;51.552;13.424;2023-03-01T17:50:38;7.20;65.80
39919;DHT22;25589;51.552;13.424;2023-03-01T17:53:07;7.10;66.30
39919;DHT22;25589;51.552;13.424;2023-03-01T17:55:38;7.00;66.70